Time;durP1;ratioP1;P1;durP2;ratioP2;P2;SDS_P1;SDS_P2;PMS_P1;PMS_P2;Temp;Humidity;BMP_temperature;BMP_pressure;BME280_temperature;BME280_humidity;BME280_pressure;Samples;Min_cycle;Max_cycle;Signal;HPM_P1;HPM_P2
2022/06/13 00:01:19;;;;;;;11.27;2.60;;;22.10;1.00;;;;;;4960234;28;20423;-74
2022/06/13 00:03:45;;;;;;;8.13;2.70;;;22.10;1.00;;;;;;4951802;28;20424;-73
2022/06/13 00:06:11;;;;;;;6.90;2.10;;;21.90;1.00;;;;;;4952427;28;20423;-74
2022/06/13 00:08:36;;;;;;;7.43;2.40;;;21.90;1.00;;;;;;4969915;28;20433;-75
2022/06/13 00:11:06;;;;;;;7.17;2.63;;;21.80;1.00;;;;;;4971682;28;20545;-75
2022/06/13 00:13:32;;;;;;;7.33;2.60;;;21.80;1.00;;;;;;4972285;28;20183;-74
2022/06/13 00:15:58;;;;;;;6.37;2.40;;;21.80;1.00;;;;;;4972238;28;20611;-74
2022/06/13 00:18:24;;;;;;;7.70;2.53;;;21.80;1.00;;;;;;4971258;28;20191;-74
2022/06/13 00:20:50;;;;;;;8.00;2.60;;;21.80;1.00;;;;;;4972214;28;20171;-74
2022/06/13 00:23:15;;;;;;;3.67;2.27;;;21.80;1.00;;;;;;4970470;28;20788;-75
2022/06/13 00:25:41;;;;;;;8.63;2.57;;;21.80;1.00;;;;;;4970745;28;20734;-73
2022/06/13 00:28:06;;;;;;;6.70;2.50;;;21.70;1.00;;;;;;4971489;28;20634;-74
2022/06/13 00:30:32;;;;;;;5.67;2.53;;;21.70;1.00;;;;;;4963765;28;20533;-73
2022/06/13 00:32:57;;;;;;;12.57;2.90;;;21.70;1.00;;;;;;4965789;28;20619;-74
2022/06/13 00:35:23;;;;;;;6.37;2.50;;;21.70;1.00;;;;;;4971397;28;20180;-74
2022/06/13 00:37:48;;;;;;;6.40;2.53;;;21.80;1.00;;;;;;4970914;28;20298;-74
2022/06/13 00:40:14;;;;;;;8.23;3.10;;;21.70;1.00;;;;;;4972081;28;20176;-75
2022/06/13 00:42:41;;;;;;;6.27;2.60;;;21.70;1.00;;;;;;4967535;28;20634;-74
2022/06/13 00:45:13;;;;;;;7.00;2.87;;;21.70;1.00;;;;;;4971708;28;20431;-75
2022/06/13 00:47:41;;;;;;;6.17;2.50;;;21.80;1.00;;;;;;4969510;28;20449;-75
2022/06/13 00:50:10;;;;;;;5.07;2.80;;;21.70;1.00;;;;;;4970683;28;20419;-75
2022/06/13 00:52:50;;;;;;;7.97;2.70;;;21.70;1.00;;;;;;4970399;28;20462;-75
2022/06/13 00:55:27;;;;;;;7.23;2.67;;;21.70;1.00;;;;;;4962763;28;20422;-75
2022/06/13 00:57:54;;;;;;;5.40;2.17;;;21.60;1.00;;;;;;4970873;28;20496;-74
2022/06/13 01:00:20;;;;;;;12.80;2.80;;;21.50;1.00;;;;;;4961865;28;20415;-75
2022/06/13 01:02:49;;;;;;;6.37;2.40;;;21.40;1.00;;;;;;4952219;28;20434;-75
2022/06/13 01:05:20;;;;;;;7.57;3.20;;;21.20;1.00;;;;;;4950174;28;20566;-74
2022/06/13 01:07:47;;;;;;;6.87;2.53;;;21.10;1.00;;;;;;4950949;28;20891;-74
2022/06/13 01:12:57;;;;;;;5.57;2.33;;;20.90;1.00;;;;;;4951011;29;20567;-75
2022/06/13 01:15:26;;;;;;;6.73;2.93;;;20.90;1.00;;;;;;4951804;28;20436;-74
2022/06/13 01:18:15;;;;;;;5.90;2.70;;;20.80;1.00;;;;;;4950660;28;20435;-74
2022/06/13 01:20:54;;;;;;;7.00;3.23;;;20.70;1.00;;;;;;4958042;28;20419;-75
2022/06/13 01:23:36;;;;;;;8.00;2.80;;;20.70;1.00;;;;;;4970156;28;20510;-75
2022/06/13 01:26:27;;;;;;;10.43;3.23;;;20.60;1.00;;;;;;4970755;28;20411;-74
2022/06/13 01:29:01;;;;;;;7.53;2.83;;;20.60;1.00;;;;;;4968174;28;20425;-74
2022/06/13 01:31:43;;;;;;;8.00;2.80;;;19.50;1.00;;;;;;4958697;28;20451;-75
2022/06/13 01:34:51;;;;;;;8.83;2.90;;;20.50;1.00;;;;;;4950481;29;20420;-74
2022/06/13 01:37:43;;;;;;;6.20;3.10;;;20.40;1.00;;;;;;4929114;29;21002;-74
2022/06/13 01:40:21;;;;;;;8.50;3.10;;;20.30;1.00;;;;;;4951481;28;20401;-75
2022/06/13 01:43:13;;;;;;;6.00;2.90;;;20.20;1.00;;;;;;4950581;29;20399;-74
2022/06/13 01:45:51;;;;;;;8.43;3.00;;;20.10;1.00;;;;;;4951514;29;20965;-74
2022/06/13 01:48:48;;;;;;;9.40;3.80;;;20.00;1.00;;;;;;4950093;29;20435;-74
2022/06/13 01:51:24;;;;;;;6.70;3.10;;;19.90;1.00;;;;;;4949405;28;20432;-74
2022/06/13 01:54:06;;;;;;;7.43;3.10;;;19.80;1.00;;;;;;4948707;29;20426;-73
2022/06/13 01:57:07;;;;;;;7.30;2.90;;;19.80;1.00;;;;;;4970327;28;20497;-74
2022/06/13 01:59:43;;;;;;;9.73;3.50;;;19.70;1.00;;;;;;4948545;28;20526;-74
2022/06/13 02:02:23;;;;;;;4.37;2.90;;;19.60;1.00;;;;;;4962103;28;20577;-74
2022/06/13 02:04:59;;;;;;;9.10;3.30;;;19.40;1.00;;;;;;4967676;28;20906;-74
2022/06/13 02:07:30;;;;;;;7.93;2.73;;;19.40;1.00;;;;;;4969145;28;21065;-74
2022/06/13 02:10:17;;;;;;;6.50;3.20;;;19.40;1.00;;;;;;4969760;28;20449;-74
2022/06/13 02:12:46;;;;;;;9.10;2.93;;;19.30;1.00;;;;;;4967744;28;20485;-74
2022/06/13 02:15:21;;;;;;;6.43;3.30;;;19.30;1.00;;;;;;4970001;28;20901;-74
2022/06/13 02:17:54;;;;;;;7.97;3.40;;;19.20;1.00;;;;;;4968988;28;20461;-74
2022/06/13 02:20:25;;;;;;;6.70;2.97;;;19.10;1.00;;;;;;4969509;28;20404;-73
2022/06/13 02:22:58;;;;;;;10.10;3.70;;;19.00;1.00;;;;;;4968591;28;20521;-74
2022/06/13 02:26:00;;;;;;;10.40;3.60;;;19.00;1.00;;;;;;4969947;28;20913;-74
2022/06/13 02:28:41;;;;;;;7.37;3.10;;;19.00;1.00;;;;;;4949608;28;20450;-74
2022/06/13 02:31:30;;;;;;;8.00;3.60;;;18.90;1.00;;;;;;4959149;28;20467;-73
2022/06/13 02:34:09;;;;;;;9.57;3.60;;;18.90;1.00;;;;;;4968592;28;20508;-73
2022/06/13 02:36:44;;;;;;;7.37;3.40;;;18.80;1.00;;;;;;4969271;28;20450;-74
2022/06/13 02:39:17;;;;;;;7.70;3.33;;;18.80;1.00;;;;;;4969106;28;20391;-74
2022/06/13 02:41:50;;;;;;;8.17;3.90;;;18.70;1.00;;;;;;4969073;28;20399;-74
2022/06/13 02:44:25;;;;;;;6.50;3.47;;;18.60;1.00;;;;;;4965802;28;20418;-73
2022/06/13 02:46:56;;;;;;;6.33;3.43;;;18.50;1.00;;;;;;4969407;28;20427;-74
2022/06/13 02:49:25;;;;;;;7.73;3.57;;;18.50;1.00;;;;;;4968050;28;20486;-73
2022/06/13 02:52:06;;;;;;;7.23;3.70;;;18.60;1.00;;;;;;4967539;28;20455;-74
2022/06/13 02:54:37;;;;;;;6.83;3.23;;;18.40;1.00;;;;;;4967713;28;20744;-74
2022/06/13 02:57:31;;;;;;;8.40;3.60;;;18.40;1.00;;;;;;4969428;28;20893;-74
2022/06/13 03:00:22;;;;;;;13.40;3.37;;;18.30;1.00;;;;;;4961229;28;20455;-74
2022/06/13 03:02:50;;;;;;;8.93;3.67;;;18.20;1.00;;;;;;4949943;28;20929;-74
2022/06/13 03:05:34;;;;;;;9.20;3.40;;;18.20;1.00;;;;;;4949795;29;20432;-73
2022/06/13 03:08:22;;;;;;;10.53;3.70;;;18.10;1.00;;;;;;4949385;29;20455;-74
2022/06/13 03:11:04;;;;;;;8.10;3.57;;;18.00;1.00;;;;;;4950105;29;20495;-74
2022/06/13 03:14:06;;;;;;;11.13;3.80;;;18.00;1.00;;;;;;4948322;28;20562;-74
2022/06/13 03:17:02;;;;;;;10.20;3.47;;;17.90;1.00;;;;;;4949989;29;20438;-74
2022/06/13 03:19:40;;;;;;;9.83;4.07;;;17.90;1.00;;;;;;4948720;28;20498;-73
2022/06/13 03:22:11;;;;;;;10.03;3.73;;;17.80;1.00;;;;;;4965262;28;20916;-74
2022/06/13 03:24:52;;;;;;;6.67;3.40;;;17.80;1.00;;;;;;4988625;28;20888;-74
2022/06/13 03:27:29;;;;;;;6.70;3.80;;;17.80;1.00;;;;;;4988549;28;21011;-73
2022/06/13 03:30:05;;;;;;;8.23;3.37;;;17.70;1.00;;;;;;4985541;28;20431;-75
2022/06/13 03:33:39;;;;;;;9.80;4.47;;;17.70;1.00;;;;;;4962563;28;20454;-75
2022/06/13 03:35:34;;;;;;;8.00;3.83;;;17.60;1.00;;;;;;4972668;28;20446;-74
2022/06/13 03:38:04;;;;;;;7.73;3.83;;;17.60;1.00;;;;;;4972440;28;20423;-74
2022/06/13 03:40:32;;;;;;;6.87;3.60;;;17.50;1.00;;;;;;4972787;28;20506;-74
2022/06/13 03:43:05;;;;;;;5.23;3.80;;;17.60;1.00;;;;;;4972030;28;20415;-75
2022/06/13 03:45:39;;;;;;;9.67;3.80;;;17.50;1.00;;;;;;4972683;28;20465;-74
2022/06/13 03:48:20;;;;;;;8.90;3.50;;;17.50;1.00;;;;;;4972021;28;20425;-75
2022/06/13 03:51:03;;;;;;;10.53;3.80;;;17.50;1.00;;;;;;4973943;28;20411;-74
2022/06/13 03:53:40;;;;;;;13.80;3.93;;;17.50;1.00;;;;;;4972162;28;20465;-74
2022/06/13 03:56:14;;;;;;;7.57;3.67;;;17.50;1.00;;;;;;4971017;28;20414;-75
2022/06/13 03:59:04;;;;;;;5.83;4.00;;;17.50;1.00;;;;;;4971324;28;20805;-75
2022/06/13 04:01:40;;;;;;;9.40;4.10;;;17.40;1.00;;;;;;4958911;28;20420;-74
2022/06/13 04:04:18;;;;;;;11.57;3.63;;;17.40;1.00;;;;;;4952013;29;20435;-74
2022/06/13 04:06:44;;;;;;;8.80;4.00;;;17.40;1.00;;;;;;4961130;28;20450;-75
2022/06/13 04:09:23;;;;;;;7.53;3.97;;;17.40;1.00;;;;;;4971578;28;20430;-75
2022/06/13 04:12:24;;;;;;;14.87;3.57;;;17.50;1.00;;;;;;4971469;28;20724;-74
2022/06/13 04:15:07;;;;;;;4.77;3.20;;;17.40;1.00;;;;;;4970817;28;20450;-75
2022/06/13 04:17:58;;;;;;;11.13;3.70;;;17.40;1.00;;;;;;4971457;28;20518;-74
2022/06/13 04:20:40;;;;;;;8.70;4.07;;;17.40;1.00;;;;;;4970211;28;20439;-75
2022/06/13 04:23:14;;;;;;;9.43;3.80;;;17.50;1.00;;;;;;4970793;28;20411;-75
2022/06/13 04:25:40;;;;;;;11.40;3.80;;;17.50;1.00;;;;;;4972123;28;20406;-75
2022/06/13 04:28:18;;;;;;;7.77;3.83;;;17.50;1.00;;;;;;4970128;28;20950;-73
2022/06/13 04:30:46;;;;;;;8.27;3.87;;;17.40;1.00;;;;;;4962831;28;20542;-75
2022/06/13 04:33:21;;;;;;;8.03;3.73;;;17.60;1.00;;;;;;4957281;28;20458;-75
2022/06/13 04:35:48;;;;;;;11.20;3.83;;;17.60;1.00;;;;;;4971202;28;20904;-74
2022/06/13 04:38:16;;;;;;;5.47;3.60;;;17.60;1.00;;;;;;4971117;28;20898;-74
2022/06/13 04:40:48;;;;;;;9.07;3.90;;;17.60;1.00;;;;;;4972184;28;20407;-72
2022/06/13 04:43:15;;;;;;;9.30;4.30;;;17.70;1.00;;;;;;4970746;28;20454;-74
2022/06/13 04:45:47;;;;;;;10.17;4.00;;;17.70;1.00;;;;;;4971749;28;20411;-73
2022/06/13 04:48:13;;;;;;;12.20;4.53;;;17.80;1.00;;;;;;4970616;28;20431;-75
2022/06/13 04:50:43;;;;;;;8.30;4.50;;;18.10;1.00;;;;;;4971009;28;20949;-73
2022/06/13 04:53:15;;;;;;;9.13;4.27;;;18.00;1.00;;;;;;4968751;28;20207;-75
2022/06/13 04:55:44;;;;;;;8.50;4.30;;;18.10;1.00;;;;;;4971215;28;20423;-74
2022/06/13 04:58:24;;;;;;;7.00;4.10;;;18.30;1.00;;;;;;4970880;28;20482;-74
2022/06/13 05:00:57;;;;;;;7.93;4.17;;;18.20;1.00;;;;;;4959601;28;20450;-75
2022/06/13 05:03:26;;;;;;;16.73;4.57;;;18.30;1.00;;;;;;4950768;29;20454;-75
2022/06/13 05:05:55;;;;;;;10.83;5.27;;;18.40;1.00;;;;;;4951395;28;20439;-74
2022/06/13 05:08:27;;;;;;;8.67;4.47;;;18.50;1.00;;;;;;4949553;28;20979;-75
2022/06/13 05:11:07;;;;;;;8.07;4.00;;;18.70;1.00;;;;;;4951516;29;20464;-74
2022/06/13 05:13:32;;;;;;;8.10;4.33;;;18.70;1.00;;;;;;4951453;29;20590;-75
2022/06/13 05:16:30;;;;;;;7.80;4.00;;;19.00;1.00;;;;;;4951772;29;20508;-75
2022/06/13 05:19:23;;;;;;;8.00;4.57;;;18.80;1.00;;;;;;4950646;28;20184;-75
2022/06/13 05:22:02;;;;;;;10.17;4.50;;;18.80;1.00;;;;;;4951166;29;20506;-74
2022/06/13 05:25:05;;;;;;;8.70;4.73;;;18.90;1.00;;;;;;4950973;29;20412;-75
2022/06/13 05:27:31;;;;;;;13.57;4.90;;;18.90;1.00;;;;;;4948242;28;20549;-74
2022/06/13 05:29:57;;;;;;;7.67;3.80;;;18.90;1.00;;;;;;4978433;28;20577;-75
2022/06/13 05:32:23;;;;;;;7.07;4.33;;;19.00;1.00;;;;;;4955195;28;20389;-75
2022/06/13 05:34:50;;;;;;;9.37;4.27;;;19.00;1.00;;;;;;4948933;28;20177;-75
2022/06/13 05:37:16;;;;;;;10.63;4.13;;;19.00;1.00;;;;;;4950764;29;20432;-75
2022/06/13 05:39:42;;;;;;;9.70;4.47;;;19.00;1.00;;;;;;4949882;28;20955;-74
2022/06/13 05:42:12;;;;;;;8.20;4.00;;;19.10;1.00;;;;;;4950559;29;20426;-75
2022/06/13 05:44:37;;;;;;;9.90;3.93;;;19.20;1.00;;;;;;4963589;28;20494;-75
2022/06/13 05:47:03;;;;;;;10.10;3.80;;;19.40;1.00;;;;;;4968587;28;20535;-75
2022/06/13 05:49:29;;;;;;;10.40;3.70;;;19.50;1.00;;;;;;4977140;28;20259;-75
2022/06/13 05:51:55;;;;;;;5.40;3.40;;;19.60;1.00;;;;;;4986758;28;20214;-75
2022/06/13 05:54:21;;;;;;;9.10;3.63;;;19.60;1.00;;;;;;4987726;28;20210;-75
2022/06/13 05:56:46;;;;;;;8.20;3.63;;;19.50;1.00;;;;;;4989329;28;21040;-76
2022/06/13 05:59:12;;;;;;;10.87;3.60;;;19.40;1.00;;;;;;4980596;28;20195;-75
2022/06/13 06:01:38;;;;;;;8.53;3.33;;;19.40;1.00;;;;;;4961679;28;20180;-75
2022/06/13 06:04:04;;;;;;;12.73;3.70;;;19.60;1.00;;;;;;4967697;28;20191;-74
2022/06/13 06:06:31;;;;;;;7.27;3.20;;;19.60;1.00;;;;;;4963137;28;20271;-75
2022/06/13 06:08:58;;;;;;;7.60;3.80;;;19.70;1.00;;;;;;4950460;28;20442;-75
2022/06/13 06:11:25;;;;;;;7.80;3.20;;;19.70;1.00;;;;;;4950114;28;20432;-75
2022/06/13 06:13:51;;;;;;;7.67;3.23;;;19.70;1.00;;;;;;4950657;28;20775;-75
2022/06/13 06:16:19;;;;;;;5.90;3.40;;;19.80;1.00;;;;;;4957688;28;20411;-75
2022/06/13 06:18:46;;;;;;;9.17;3.10;;;19.80;1.00;;;;;;4969099;28;20525;-75
2022/06/13 06:21:12;;;;;;;6.20;3.30;;;19.80;1.00;;;;;;4969021;28;20430;-74
2022/06/13 06:23:38;;;;;;;7.20;3.60;;;19.80;1.00;;;;;;4977630;28;20921;-76
2022/06/13 06:26:04;;;;;;;7.33;3.70;;;19.80;1.00;;;;;;4987819;28;20179;-75
2022/06/13 06:28:30;;;;;;;8.03;3.30;;;19.80;1.00;;;;;;4984194;28;20190;-75
2022/06/13 06:30:57;;;;;;;8.63;3.33;;;19.70;1.00;;;;;;4961598;28;20462;-74
2022/06/13 06:33:24;;;;;;;7.47;3.13;;;19.70;1.00;;;;;;4967191;28;20454;-74
2022/06/13 06:35:51;;;;;;;9.73;3.00;;;19.70;1.00;;;;;;4969561;28;20970;-75
2022/06/13 06:38:17;;;;;;;9.87;3.50;;;19.80;1.00;;;;;;4968985;28;21053;-75
2022/06/13 06:40:43;;;;;;;10.33;3.67;;;19.80;1.00;;;;;;4969110;28;20911;-75
2022/06/13 06:43:09;;;;;;;6.83;3.10;;;19.80;1.00;;;;;;4968789;28;20829;-76
2022/06/13 06:45:35;;;;;;;8.60;3.30;;;19.90;1.00;;;;;;4968239;28;20423;-75
2022/06/13 06:48:02;;;;;;;6.27;3.23;;;19.90;1.00;;;;;;4968404;28;20434;-75
2022/06/13 06:50:32;;;;;;;7.60;3.43;;;20.00;1.00;;;;;;4967981;28;20850;-75
2022/06/13 06:52:58;;;;;;;10.40;3.70;;;20.10;1.00;;;;;;4968136;28;20458;-74
2022/06/13 07:01:02;;;;;;;5.67;3.00;;;20.20;1.00;;;;;;4958210;28;20507;-74
2022/06/13 07:03:28;;;;;;;11.93;3.30;;;20.30;1.00;;;;;;4949413;29;20503;-76
2022/06/13 07:05:53;;;;;;;6.57;3.60;;;20.40;1.00;;;;;;4952232;28;20992;-75
2022/06/13 07:08:19;;;;;;;8.93;3.30;;;20.50;1.00;;;;;;4969508;28;20345;-75
2022/06/13 07:10:47;;;;;;;8.63;3.30;;;20.50;1.00;;;;;;4973337;28;20614;-75
2022/06/13 07:13:18;;;;;;;8.20;3.77;;;20.60;1.00;;;;;;4972685;28;20454;-76
2022/06/13 07:15:44;;;;;;;11.73;3.90;;;20.70;1.00;;;;;;4973497;28;20529;-75
2022/06/13 07:18:09;;;;;;;9.17;3.53;;;20.80;1.00;;;;;;4972308;28;20507;-74
2022/06/13 07:20:36;;;;;;;8.90;4.20;;;20.90;1.00;;;;;;4972937;28;20172;-75
2022/06/13 07:23:02;;;;;;;7.63;3.20;;;21.10;1.00;;;;;;4972010;28;20595;-75
2022/06/13 07:25:30;;;;;;;7.20;3.57;;;21.20;1.00;;;;;;4973158;28;20505;-75
2022/06/13 07:27:57;;;;;;;7.00;3.03;;;21.30;1.00;;;;;;4972590;28;20493;-75
2022/06/13 07:30:25;;;;;;;6.73;3.30;;;21.40;1.00;;;;;;4964825;28;20770;-74
2022/06/13 07:32:52;;;;;;;5.17;3.17;;;21.70;1.00;;;;;;4953112;28;20467;-75
2022/06/13 07:35:19;;;;;;;7.00;3.67;;;21.80;1.00;;;;;;4953140;29;20794;-75
2022/06/13 07:40:30;;;;;;;8.00;3.40;;;22.10;1.00;;;;;;4953982;29;20402;-76
2022/06/13 07:43:01;;;;;;;8.83;3.13;;;22.20;1.00;;;;;;4955276;28;20520;-75
2022/06/13 07:45:30;;;;;;;8.57;3.40;;;22.30;1.00;;;;;;4987980;28;20442;-75
2022/06/13 07:47:56;;;;;;;6.70;3.00;;;22.50;1.00;;;;;;4988138;28;20426;-74
2022/06/13 07:50:25;;;;;;;8.03;3.50;;;22.50;1.00;;;;;;4991647;28;20410;-74
2022/06/13 07:52:51;;;;;;;7.60;2.90;;;22.60;1.00;;;;;;4990036;28;20805;-74
2022/06/13 07:55:18;;;;;;;5.43;2.80;;;22.70;1.00;;;;;;4992394;28;20406;-75
2022/06/13 07:57:45;;;;;;;12.10;3.20;;;22.80;1.00;;;;;;4991871;28;20516;-74
2022/06/13 08:00:23;;;;;;;7.83;3.40;;;22.90;1.00;;;;;;4974866;28;20948;-75
2022/06/13 08:02:49;;;;;;;10.53;3.23;;;23.00;1.00;;;;;;4951554;28;20416;-74
2022/06/13 08:05:15;;;;;;;8.13;3.07;;;23.20;1.00;;;;;;4953921;28;20744;-75
2022/06/13 08:07:41;;;;;;;6.40;3.10;;;23.30;1.00;;;;;;4952897;29;20436;-75
2022/06/13 08:10:07;;;;;;;8.30;3.13;;;23.50;1.00;;;;;;4952386;29;20522;-75
2022/06/13 08:12:32;;;;;;;8.33;3.23;;;23.60;1.00;;;;;;4950687;29;20196;-75
2022/06/13 08:14:58;;;;;;;9.67;3.83;;;23.70;1.00;;;;;;4952472;28;20263;-74
2022/06/13 08:17:23;;;;;;;7.20;4.07;;;24.00;1.00;;;;;;4966530;28;20203;-75
2022/06/13 08:19:50;;;;;;;12.40;3.43;;;24.10;1.00;;;;;;4971155;28;20183;-75
2022/06/13 08:22:16;;;;;;;6.83;3.73;;;24.20;1.00;;;;;;4970604;28;20175;-75
2022/06/13 08:24:42;;;;;;;6.57;3.90;;;24.20;1.00;;;;;;4972115;28;20576;-75
2022/06/13 08:27:07;;;;;;;5.13;3.20;;;24.00;1.00;;;;;;4971720;28;20566;-74
2022/06/13 08:29:33;;;;;;;8.70;4.30;;;24.50;1.00;;;;;;4962707;28;20260;-76
2022/06/13 08:32:00;;;;;;;7.50;4.20;;;24.80;1.00;;;;;;4959505;28;20203;-74
2022/06/13 08:34:26;;;;;;;10.40;3.63;;;25.00;1.00;;;;;;4951520;28;20168;-75
2022/06/13 08:36:53;;;;;;;8.93;3.20;;;25.10;1.00;;;;;;4951944;28;20459;-75
2022/06/13 08:39:19;;;;;;;10.07;3.83;;;24.90;1.00;;;;;;4951671;28;20164;-75
2022/06/13 08:42:07;;;;;;;10.50;3.53;;;25.00;1.00;;;;;;4951648;29;20420;-74
2022/06/13 08:44:46;;;;;;;5.40;2.80;;;25.00;1.00;;;;;;4965614;28;20257;-75
2022/06/13 08:47:27;;;;;;;7.40;3.10;;;25.30;1.00;;;;;;4970166;28;20880;-75
2022/06/13 08:50:28;;;;;;;5.67;2.80;;;25.60;1.00;;;;;;4970814;28;20453;-75
2022/06/13 08:52:57;;;;;;;8.73;2.60;;;25.70;1.00;;;;;;4929102;29;20880;-75
2022/06/13 08:55:32;;;;;;;11.73;3.30;;;25.50;1.00;;;;;;4963908;28;20418;-75
2022/06/13 08:58:10;;;;;;;5.67;2.90;;;25.50;1.00;;;;;;4969937;28;20979;-75
2022/06/13 09:00:38;;;;;;;4.90;2.80;;;25.10;1.00;;;;;;4961238;28;20422;-75
2022/06/13 09:03:17;;;;;;;7.93;3.50;;;25.20;1.00;;;;;;4950634;28;20428;-75
2022/06/13 09:05:53;;;;;;;6.20;3.10;;;25.40;1.00;;;;;;4959277;28;20553;-74
2022/06/13 09:08:31;;;;;;;6.23;2.90;;;25.10;1.00;;;;;;4970299;28;20430;-75
2022/06/13 09:11:15;;;;;;;10.43;3.17;;;25.40;1.00;;;;;;4970380;28;20759;-75
2022/06/13 09:14:09;;;;;;;6.37;2.93;;;26.80;1.00;;;;;;4970861;28;20558;-75
2022/06/13 09:16:36;;;;;;;6.30;3.33;;;28.20;1.00;;;;;;4969594;28;20552;-76
2022/06/13 09:19:27;;;;;;;7.93;3.00;;;28.90;1.00;;;;;;4969740;28;20168;-75
2022/06/13 09:22:01;;;;;;;5.40;2.60;;;29.70;1.00;;;;;;4969949;28;20250;-76
2022/06/13 09:24:49;;;;;;;8.80;3.28;;;29.90;1.00;;;;;;4970242;28;20168;-76
2022/06/13 09:27:21;;;;;;;6.38;2.63;;;30.80;1.00;;;;;;4969631;28;20261;-77
2022/06/13 09:30:08;;;;;;;7.07;2.65;;;32.10;1.00;;;;;;4962657;28;20222;-76
2022/06/13 09:32:41;;;;;;;5.28;2.47;;;32.30;1.00;;;;;;4953327;28;20227;-77
2022/06/13 09:35:19;;;;;;;3.78;2.05;;;32.90;1.00;;;;;;4950579;29;20194;-77
2022/06/13 09:38:00;;;;;;;9.88;2.20;;;33.20;1.00;;;;;;4949329;29;20251;-76
2022/06/13 09:40:40;;;;;;;4.57;2.10;;;32.90;1.00;;;;;;4951831;29;20176;-75
2022/06/13 09:43:22;;;;;;;5.25;2.40;;;33.20;1.00;;;;;;4954392;28;20202;-76
2022/06/13 09:46:13;;;;;;;3.35;1.98;;;33.80;1.00;;;;;;4970194;28;20182;-76
2022/06/13 09:48:49;;;;;;;6.00;2.88;;;34.20;1.00;;;;;;4969442;28;20660;-76
2022/06/13 09:51:39;;;;;;;9.32;2.25;;;33.50;1.00;;;;;;4969182;28;20175;-77
2022/06/13 09:54:11;;;;;;;4.72;2.25;;;33.60;1.00;;;;;;4969939;28;20192;-76
2022/06/13 09:56:43;;;;;;;14.80;2.53;;;33.90;1.00;;;;;;4972830;28;20691;-76
2022/06/13 09:59:43;;;;;;;19.88;2.78;;;34.70;1.00;;;;;;4965619;28;20239;-77
2022/06/13 10:02:47;;;;;;;7.72;2.20;;;34.70;1.00;;;;;;4963134;28;20175;-76
2022/06/13 10:05:28;;;;;;;8.90;2.20;;;35.50;1.00;;;;;;4965542;28;20198;-77
2022/06/13 10:08:23;;;;;;;5.97;2.22;;;35.20;1.00;;;;;;4969834;28;20195;-77
2022/06/13 10:11:17;;;;;;;4.00;1.88;;;35.00;1.00;;;;;;4970139;28;20214;-77
2022/06/13 10:14:05;;;;;;;4.30;1.80;;;35.20;1.00;;;;;;4967774;28;20381;-77
2022/06/13 10:16:52;;;;;;;4.95;2.20;;;35.10;1.00;;;;;;4968340;28;20187;-77
2022/06/13 10:19:23;;;;;;;4.10;2.05;;;35.30;1.00;;;;;;4969046;28;20190;-76
2022/06/13 10:22:00;;;;;;;7.05;2.08;;;35.80;1.00;;;;;;4967378;28;20171;-77
2022/06/13 10:24:39;;;;;;;4.28;2.10;;;36.10;1.00;;;;;;4968258;28;20217;-77
2022/06/13 10:28:06;;;;;;;6.93;2.00;;;36.50;1.00;;;;;;4968354;28;20286;-77
2022/06/13 10:31:00;;;;;;;6.88;2.40;;;37.00;1.00;;;;;;4906218;29;20728;-77
2022/06/13 10:33:31;;;;;;;5.15;2.20;;;36.90;1.00;;;;;;4948602;28;20235;-75
2022/06/13 10:36:09;;;;;;;5.57;2.30;;;37.10;1.00;;;;;;4948373;29;20183;-77
2022/06/13 10:38:47;;;;;;;4.50;2.20;;;36.90;1.00;;;;;;4949871;28;20171;-77
2022/06/13 10:41:13;;;;;;;4.90;2.50;;;35.70;1.00;;;;;;4950035;28;20164;-77
2022/06/13 10:43:42;;;;;;;5.05;2.15;;;36.30;1.00;;;;;;4950116;28;20179;-77
2022/06/13 10:46:11;;;;;;;4.50;2.38;;;37.10;1.00;;;;;;4949309;28;20718;-77
2022/06/13 10:49:04;;;;;;;6.25;2.05;;;37.40;1.00;;;;;;4961686;28;20175;-75
2022/06/13 10:51:29;;;;;;;9.98;2.50;;;38.30;1.00;;;;;;4968458;28;20225;-77
2022/06/13 10:54:12;;;;;;;6.30;2.67;;;36.60;1.00;;;;;;4969226;28;20194;-76
2022/06/13 10:56:42;;;;;;;4.55;2.30;;;35.00;1.00;;;;;;4969545;28;20309;-77
2022/06/13 10:59:21;;;;;;;8.98;2.70;;;34.90;1.00;;;;;;4964978;28;20176;-77
2022/06/13 11:02:19;;;;;;;8.75;2.40;;;33.70;1.00;;;;;;4957529;28;20274;-76
2022/06/13 11:04:44;;;;;;;6.00;2.40;;;32.80;1.00;;;;;;4945862;28;20206;-75
2022/06/13 11:07:19;;;;;;;4.90;2.80;;;33.70;1.00;;;;;;4961751;28;20195;-76
2022/06/13 11:09:55;;;;;;;5.43;2.40;;;33.80;1.00;;;;;;4969344;28;20175;-76
2022/06/13 11:12:28;;;;;;;5.97;2.42;;;32.50;1.00;;;;;;4968981;28;20217;-76
2022/06/13 11:23:36;;;;;;;6.22;2.70;;;29.50;1.00;;;;;;4969014;28;20206;-77
2022/06/13 11:26:03;;;;;;;6.63;2.70;;;29.20;1.00;;;;;;4969431;28;20343;-76
2022/06/13 11:28:39;;;;;;;5.40;2.60;;;28.90;1.00;;;;;;4967241;28;20294;-75
2022/06/13 11:31:26;;;;;;;6.57;2.75;;;29.90;1.00;;;;;;4957224;28;20167;-76
2022/06/13 11:33:53;;;;;;;4.63;2.50;;;31.50;1.00;;;;;;4948869;29;20259;-75
2022/06/13 11:36:28;;;;;;;7.32;2.50;;;34.00;1.00;;;;;;4949526;28;20260;-76
2022/06/13 11:38:59;;;;;;;6.72;2.88;;;34.30;1.00;;;;;;4947744;28;20175;-75
2022/06/13 11:41:41;;;;;;;9.60;3.00;;;34.40;1.00;;;;;;4949170;29;20177;-76
2022/06/13 11:44:14;;;;;;;7.72;2.50;;;35.70;1.00;;;;;;4961655;28;20192;-76
2022/06/13 11:46:59;;;;;;;3.92;2.40;;;36.90;1.00;;;;;;4968855;28;20191;-77
2022/06/13 11:49:46;;;;;;;9.15;2.28;;;38.20;1.00;;;;;;4967999;28;20201;-77
2022/06/13 11:52:11;;;;;;;5.78;2.50;;;38.20;1.00;;;;;;4969345;28;20187;-77
2022/06/13 11:54:51;;;;;;;6.03;2.70;;;38.50;1.00;;;;;;4970036;28;20202;-77
2022/06/13 11:57:38;;;;;;;4.60;2.55;;;39.10;1.00;;;;;;4970965;28;20354;-77
2022/06/13 12:00:20;;;;;;;5.28;2.50;;;39.60;1.00;;;;;;4968772;28;20172;-77
2022/06/13 12:02:49;;;;;;;5.75;2.47;;;40.20;1.00;;;;;;4953670;28;20183;-77
2022/06/13 12:05:31;;;;;;;6.15;2.72;;;41.30;1.00;;;;;;4950863;28;20654;-77
2022/06/13 12:08:15;;;;;;;6.40;2.25;;;40.60;1.00;;;;;;4952316;29;20520;-77
2022/06/13 12:10:56;;;;;;;3.83;2.28;;;39.30;1.00;;;;;;4951762;28;20551;-77
2022/06/13 12:13:22;;;;;;;6.68;2.88;;;38.70;1.00;;;;;;4952577;29;20199;-77
2022/06/13 12:15:52;;;;;;;6.63;1.92;;;39.30;1.00;;;;;;4951391;28;20270;-77
2022/06/13 12:18:42;;;;;;;6.13;2.03;;;39.20;1.00;;;;;;4952313;28;20562;-77
2022/06/13 12:21:20;;;;;;;8.02;2.60;;;37.40;1.00;;;;;;4951717;28;20654;-76
2022/06/13 12:23:53;;;;;;;7.43;2.50;;;35.20;1.00;;;;;;4952474;28;20178;-76
2022/06/13 12:26:30;;;;;;;11.35;2.67;;;33.00;1.00;;;;;;4952570;28;20267;-76
2022/06/13 12:29:27;;;;;;;11.23;2.50;;;32.90;1.00;;;;;;4973602;28;20189;-77
2022/06/13 12:32:04;;;;;;;5.05;2.50;;;31.80;1.00;;;;;;4961278;28;20171;-76
2022/06/13 12:34:38;;;;;;;6.38;2.45;;;30.50;1.00;;;;;;4966812;28;20179;-76
2022/06/13 12:37:36;;;;;;;7.65;2.67;;;30.20;1.00;;;;;;4971386;28;20222;-77
2022/06/13 12:40:31;;;;;;;8.20;2.47;;;30.00;1.00;;;;;;4971657;28;20170;-76
2022/06/13 12:43:27;;;;;;;5.95;2.20;;;30.90;1.00;;;;;;4970527;28;20171;-76
2022/06/13 12:46:22;;;;;;;4.80;2.30;;;33.80;1.00;;;;;;4970022;28;20241;-76
2022/06/13 12:49:05;;;;;;;5.22;2.80;;;34.60;1.00;;;;;;4970602;28;20176;-75
2022/06/13 12:51:45;;;;;;;6.43;2.10;;;35.90;1.00;;;;;;4970381;28;20530;-76
2022/06/13 12:54:30;;;;;;;7.78;2.20;;;37.80;1.00;;;;;;4970854;28;20230;-76
2022/06/13 12:57:19;;;;;;;5.55;2.67;;;38.40;1.00;;;;;;4971507;28;20229;-77
2022/06/13 13:00:20;;;;;;;6.45;2.22;;;36.70;1.00;;;;;;4963116;28;20172;-75
2022/06/13 13:03:05;;;;;;;5.80;2.28;;;34.00;1.00;;;;;;4952890;28;20201;-76
2022/06/13 13:05:45;;;;;;;7.28;2.58;;;35.10;1.00;;;;;;4957372;28;20191;-77
2022/06/13 13:08:34;;;;;;;5.85;2.30;;;35.90;1.00;;;;;;4970236;28;20270;-76
2022/06/13 13:11:21;;;;;;;6.63;2.58;;;37.60;1.00;;;;;;4970877;28;20164;-77
2022/06/13 13:14:05;;;;;;;4.75;2.33;;;37.40;1.00;;;;;;4971189;28;20202;-77
2022/06/13 13:16:40;;;;;;;6.35;2.10;;;37.10;1.00;;;;;;4971401;28;20195;-77
2022/06/13 13:19:21;;;;;;;3.65;2.10;;;37.50;1.00;;;;;;4968616;28;20189;-77
2022/06/13 13:22:00;;;;;;;4.72;2.00;;;38.50;1.00;;;;;;4969776;28;20167;-77
2022/06/13 13:24:44;;;;;;;4.50;2.00;;;38.70;1.00;;;;;;4969038;28;20178;-76
2022/06/13 13:27:15;;;;;;;5.45;2.45;;;38.10;1.00;;;;;;4970602;28;20187;-77
2022/06/13 13:30:20;;;;;;;4.28;2.22;;;35.60;1.00;;;;;;4962455;28;20184;-77
2022/06/13 13:33:08;;;;;;;5.82;2.30;;;33.70;1.00;;;;;;4952037;28;20195;-77
2022/06/13 13:35:47;;;;;;;3.80;2.40;;;32.50;1.00;;;;;;4951148;29;20168;-76
2022/06/13 13:38:32;;;;;;;5.32;2.63;;;33.20;1.00;;;;;;4950729;29;20615;-76
2022/06/13 13:41:04;;;;;;;4.55;2.20;;;34.10;1.00;;;;;;4950931;29;20176;-77
2022/06/13 13:43:42;;;;;;;5.47;2.20;;;36.00;1.00;;;;;;4958210;28;20201;-78
2022/06/13 13:46:33;;;;;;;5.75;2.70;;;35.70;1.00;;;;;;4970494;28;20175;-76
2022/06/13 13:49:30;;;;;;;5.03;2.40;;;34.00;1.00;;;;;;4969586;28;20484;-77
2022/06/13 13:52:04;;;;;;;5.93;2.55;;;32.00;1.00;;;;;;4962803;28;20183;-76
2022/06/13 13:54:39;;;;;;;10.05;2.38;;;30.70;1.00;;;;;;4970016;28;20221;-76
2022/06/13 13:57:07;;;;;;;7.40;2.88;;;30.20;1.00;;;;;;4972393;28;20543;-76
2022/06/13 13:59:41;;;;;;;4.00;2.33;;;30.50;1.00;;;;;;4960909;28;20533;-77